createdAt,value
2019-05-02T00:00:15.034Z,22.65
2019-05-02T00:01:11.283Z,19.17
2019-05-02T00:01:49.594Z,22.80
2019-05-02T00:02:23.961Z,20.05
2019-05-02T00:02:59.791Z,26.30
2019-05-02T00:03:36.006Z,22.77
2019-05-02T00:04:12.347Z,28.60
2019-05-02T00:04:44.669Z,25.88
2019-05-02T00:05:18.746Z,22.65
2019-05-02T00:05:52.374Z,20.95
2019-05-02T00:06:26.384Z,21.62
2019-05-02T00:07:14.459Z,18.40
2019-05-02T00:07:47.035Z,22.45
2019-05-02T00:08:20.955Z,28.02
2019-05-02T00:08:54.662Z,21.07
2019-05-02T00:09:28.201Z,19.82
2019-05-02T00:10:02.140Z,24.80
2019-05-02T00:10:36.435Z,21.95
2019-05-02T00:11:10.558Z,23.05
2019-05-02T00:11:52.298Z,20.82
2019-05-02T00:12:21.610Z,27.58
2019-05-02T00:12:55.197Z,25.65
2019-05-02T00:13:28.749Z,21.45
2019-05-02T00:14:02.545Z,26.68
2019-05-02T00:14:36.930Z,28.25
2019-05-02T00:15:11.275Z,24.60
2019-05-02T00:15:44.854Z,23.20
2019-05-02T00:16:18.657Z,23.92
2019-05-02T00:16:52.431Z,22.87
2019-05-02T00:17:27.560Z,29.25
2019-05-02T00:18:01.487Z,22.20
2019-05-02T00:18:37.131Z,28.32
2019-05-02T00:19:14.006Z,22.77
2019-05-02T00:19:49.882Z,23.27
2019-05-02T00:20:25.869Z,23.57
2019-05-02T00:20:57.197Z,20.72
2019-05-02T00:21:32.877Z,21.77
2019-05-02T00:22:07.356Z,25.88
2019-05-02T00:22:40.959Z,25.00
2019-05-02T00:23:14.552Z,24.72
2019-05-02T00:23:48.097Z,23.25
2019-05-02T00:24:21.721Z,22.00
2019-05-02T00:24:55.353Z,26.50
2019-05-02T00:25:28.882Z,27.40
2019-05-02T00:26:02.468Z,38.95
2019-05-02T00:26:35.962Z,23.42
2019-05-02T00:27:10.191Z,25.15
2019-05-02T00:27:43.746Z,30.57
2019-05-02T00:28:17.276Z,30.25
2019-05-02T00:28:50.834Z,24.92
2019-05-02T00:29:25.074Z,24.90
2019-05-02T00:30:00.371Z,27.75
2019-05-02T00:30:34.644Z,24.65
2019-05-02T00:31:11.549Z,22.98
2019-05-02T00:31:46.862Z,24.85
2019-05-02T00:32:22.563Z,23.07
2019-05-02T00:32:58.335Z,23.85
2019-05-02T00:33:34.356Z,24.95
2019-05-02T00:34:05.817Z,24.27
2019-05-02T00:34:39.335Z,31.20
2019-05-02T00:35:13.393Z,28.15
2019-05-02T00:35:47.619Z,26.93
2019-05-02T00:36:21.250Z,23.07
2019-05-02T00:36:54.746Z,24.45
2019-05-02T00:37:28.297Z,26.42
2019-05-02T00:38:20.899Z,21.75
2019-05-02T00:38:54.542Z,24.87
2019-05-02T00:39:28.247Z,24.90
2019-05-02T00:40:01.778Z,20.95
2019-05-02T00:40:35.298Z,22.20
2019-05-02T00:41:08.831Z,23.80
2019-05-02T00:41:42.370Z,29.12
2019-05-02T00:42:17.647Z,22.82
2019-05-02T00:42:53.186Z,24.47
2019-05-02T00:43:29.099Z,26.02
2019-05-02T00:44:01.623Z,20.27
2019-05-02T00:44:35.212Z,23.70
2019-05-02T00:45:09.506Z,26.12
2019-05-02T00:45:43.197Z,24.57
2019-05-02T00:46:16.812Z,23.95
2019-05-02T00:46:50.394Z,24.18
2019-05-02T00:47:47.684Z,22.37
2019-05-02T00:48:27.177Z,23.05
2019-05-02T00:49:01.869Z,25.27
2019-05-02T00:49:36.695Z,20.77
2019-05-02T00:50:11.200Z,23.02
2019-05-02T00:50:50.953Z,20.60
2019-05-02T00:51:21.929Z,21.33
2019-05-02T00:51:56.607Z,24.00
2019-05-02T00:52:32.862Z,21.65
2019-05-02T00:53:11.673Z,22.32
2019-05-02T00:53:44.380Z,23.38
2019-05-02T00:54:19.179Z,24.52
2019-05-02T00:54:54.948Z,24.37
2019-05-02T00:55:28.844Z,27.02
2019-05-02T00:56:05.128Z,24.18
2019-05-02T00:56:40.202Z,29.07
2019-05-02T00:57:14.827Z,28.05
2019-05-02T00:57:50.893Z,21.87
2019-05-02T00:58:27.214Z,26.27
2019-05-02T00:59:02.263Z,22.22
2019-05-02T00:59:37.809Z,26.07
2019-05-02T01:00:13.346Z,27.45
2019-05-02T01:01:04.552Z,23.05
2019-05-02T01:02:05.314Z,22.73
2019-05-02T01:02:53.768Z,24.77
2019-05-02T01:03:28.478Z,24.45
2019-05-02T01:04:07.269Z,20.92
2019-05-02T01:04:42.393Z,27.15
2019-05-02T01:05:15.968Z,22.95
2019-05-02T01:05:49.499Z,23.70
2019-05-02T01:06:23.025Z,23.05
2019-05-02T01:06:56.889Z,23.83
2019-05-02T01:07:30.427Z,22.73
2019-05-02T01:08:03.942Z,26.80
2019-05-02T01:08:37.457Z,26.97
2019-05-02T01:09:12.900Z,26.40
2019-05-02T01:09:46.790Z,25.72
2019-05-02T01:10:22.548Z,22.48
2019-05-02T01:10:56.867Z,23.92
2019-05-02T01:11:32.213Z,25.50
2019-05-02T01:12:08.552Z,23.83
2019-05-02T01:12:44.373Z,25.80
2019-05-02T01:13:19.224Z,22.22
2019-05-02T01:13:55.736Z,23.25
2019-05-02T01:14:31.836Z,23.57
2019-05-02T01:15:08.270Z,26.35
2019-05-02T01:15:43.672Z,30.17
2019-05-02T01:16:15.164Z,26.02
2019-05-02T01:16:54.339Z,26.65
2019-05-02T01:17:26.168Z,22.52
2019-05-02T01:18:01.042Z,21.55
2019-05-02T01:18:54.487Z,27.13
2019-05-02T01:19:28.062Z,25.10
2019-05-02T01:20:01.571Z,30.95
2019-05-02T01:20:35.230Z,25.15
2019-05-02T01:21:08.860Z,27.37
2019-05-02T01:21:42.422Z,24.90
2019-05-02T01:22:17.203Z,26.37
2019-05-02T01:22:52.192Z,27.25
2019-05-02T01:23:27.664Z,24.25
2019-05-02T01:24:03.025Z,24.82
2019-05-02T01:24:39.594Z,26.25
2019-05-02T01:25:15.959Z,27.35
2019-05-02T01:25:52.423Z,23.12
2019-05-02T01:26:47.537Z,26.95
2019-05-02T01:30:18.281Z,24.23
2019-05-02T01:31:18.457Z,23.45
2019-05-02T01:32:09.754Z,28.05
2019-05-02T01:33:06.442Z,23.32
2019-05-02T01:34:01.655Z,24.60
2019-05-02T01:35:09.479Z,26.97
2019-05-02T01:36:09.421Z,29.60
2019-05-02T01:36:48.791Z,26.07
2019-05-02T01:37:32.701Z,25.37
2019-05-02T01:38:26.378Z,29.67
2019-05-02T01:39:02.869Z,23.98
2019-05-02T01:39:37.928Z,31.30
2019-05-02T01:40:13.051Z,24.95
2019-05-02T01:40:53.380Z,24.77
2019-05-02T01:41:29.369Z,26.87
2019-05-02T01:42:04.232Z,27.98
2019-05-02T01:42:40.135Z,24.18
2019-05-02T01:43:25.649Z,23.75
2019-05-02T01:44:00.140Z,27.55
2019-05-02T01:44:36.366Z,23.05
2019-05-02T01:45:11.211Z,25.88
2019-05-02T01:45:46.651Z,25.40
2019-05-02T01:46:22.381Z,29.48
2019-05-02T01:46:58.720Z,25.85
2019-05-02T01:47:34.059Z,21.90
2019-05-02T01:48:09.785Z,27.15
2019-05-02T01:48:45.649Z,24.05
2019-05-02T01:49:21.695Z,24.67
2019-05-02T01:49:57.066Z,26.62
2019-05-02T01:50:28.951Z,22.22
2019-05-02T01:51:04.363Z,25.80
2019-05-02T01:51:41.903Z,21.62
2019-05-02T01:52:12.961Z,26.30
2019-05-02T01:52:46.503Z,29.02
2019-05-02T01:53:20.038Z,24.25
2019-05-02T01:53:53.583Z,26.87
2019-05-02T01:54:27.194Z,28.07
2019-05-02T01:55:00.727Z,26.27
2019-05-02T01:55:34.337Z,32.65
2019-05-02T01:56:07.922Z,25.30
2019-05-02T01:56:41.417Z,25.20
2019-05-02T01:57:14.932Z,26.15
2019-05-02T01:57:48.601Z,28.23
2019-05-02T01:58:22.919Z,24.43
2019-05-02T01:58:57.843Z,24.57
2019-05-02T01:59:33.851Z,24.92
2019-05-02T02:00:09.640Z,25.48
2019-05-02T02:00:44.773Z,29.23
2019-05-02T02:01:21.457Z,22.73
2019-05-02T02:01:58.018Z,24.60
2019-05-02T02:02:32.820Z,25.68
2019-05-02T02:03:09.178Z,22.65
2019-05-02T02:03:40.660Z,25.37
2019-05-02T02:04:16.187Z,25.00
2019-05-02T02:04:52.146Z,29.10
2019-05-02T02:05:27.544Z,26.70
2019-05-02T02:06:02.897Z,23.73
2019-05-02T02:06:38.784Z,31.37
2019-05-02T02:07:14.974Z,24.52
2019-05-02T02:07:50.814Z,28.60
2019-05-02T02:08:32.479Z,25.90
2019-05-02T02:09:08.418Z,27.70
2019-05-02T02:09:44.035Z,22.87
2019-05-02T02:10:19.519Z,24.47
2019-05-02T02:10:55.664Z,27.40
2019-05-02T02:11:28.324Z,25.82
2019-05-02T02:12:04.891Z,33.88
2019-05-02T02:12:36.213Z,27.62
2019-05-02T02:13:09.838Z,26.10
2019-05-02T02:13:43.353Z,22.02
2019-05-02T02:14:18.787Z,25.25
2019-05-02T02:14:53.456Z,28.00
2019-05-02T02:15:29.034Z,29.23
2019-05-02T02:16:04.330Z,26.90
2019-05-02T02:16:39.230Z,26.60
2019-05-02T02:17:15.829Z,24.65
2019-05-02T02:17:51.502Z,26.68
2019-05-02T02:18:27.735Z,25.95
2019-05-02T02:19:06.196Z,24.72
2019-05-02T02:19:44.950Z,23.35
2019-05-02T02:20:20.130Z,22.85
2019-05-02T02:21:12.815Z,24.55
2019-05-02T02:22:08.535Z,27.17
2019-05-02T02:22:51.801Z,24.82
2019-05-02T02:23:38.414Z,24.25
2019-05-02T02:24:28.074Z,27.05
2019-05-02T02:25:39.183Z,25.52
2019-05-02T02:26:13.920Z,26.68
2019-05-02T02:26:48.592Z,21.65
2019-05-02T02:27:24.626Z,23.83
2019-05-02T02:27:59.622Z,22.70
2019-05-02T02:28:33.533Z,23.55
2019-05-02T02:29:07.939Z,24.87
2019-05-02T02:29:43.960Z,25.05
2019-05-02T02:30:24.340Z,25.90
2019-05-02T02:30:58.091Z,22.45
2019-05-02T02:31:28.320Z,25.72
2019-05-02T02:32:01.869Z,27.48
2019-05-02T02:32:35.406Z,24.85
2019-05-02T02:33:09.855Z,20.02
2019-05-02T02:33:48.051Z,22.50
2019-05-02T02:34:21.341Z,22.60
2019-05-02T02:34:54.303Z,24.40
2019-05-02T02:35:27.811Z,21.65
2019-05-02T02:36:01.323Z,27.70
2019-05-02T02:36:35.094Z,28.10
2019-05-02T02:37:12.962Z,22.48
2019-05-02T02:37:52.146Z,22.55
2019-05-02T02:38:19.412Z,22.13
2019-05-02T02:38:52.972Z,25.32
2019-05-02T02:39:26.484Z,22.15
2019-05-02T02:40:00.726Z,25.60
2019-05-02T02:40:35.722Z,22.15
2019-05-02T02:41:13.056Z,25.65
2019-05-02T02:41:45.310Z,22.02
2019-05-02T02:42:25.062Z,23.65
2019-05-02T02:42:55.153Z,20.27
2019-05-02T02:43:34.357Z,19.15
2019-05-02T02:44:33.624Z,20.50
2019-05-02T02:45:18.982Z,18.27
2019-05-02T02:45:57.642Z,19.60
2019-05-02T02:46:37.757Z,19.60
2019-05-02T02:47:12.171Z,21.50
2019-05-02T02:47:42.819Z,19.30
2019-05-02T02:48:16.365Z,26.45
2019-05-02T02:48:49.856Z,22.27
2019-05-02T02:49:24.578Z,18.98
2019-05-02T02:50:02.345Z,19.42
2019-05-02T02:50:36.699Z,22.75
2019-05-02T02:51:09.609Z,22.05
2019-05-02T02:51:43.153Z,16.05
2019-05-02T02:52:16.667Z,24.25
2019-05-02T02:52:50.176Z,20.12
2019-05-02T02:53:32.284Z,21.87
2019-05-02T02:54:06.056Z,20.75
2019-05-02T02:54:43.464Z,21.00
2019-05-02T02:55:16.074Z,19.02
2019-05-02T02:56:00.796Z,16.32
2019-05-02T02:56:25.542Z,18.17
2019-05-02T02:56:59.064Z,21.48
2019-05-02T02:57:33.383Z,18.48
2019-05-02T02:58:07.175Z,19.15
2019-05-02T02:58:45.524Z,23.02
2019-05-02T02:59:19.401Z,17.80
2019-05-02T02:59:52.094Z,16.55
2019-05-02T03:00:25.625Z,17.65
2019-05-02T03:00:59.216Z,31.25
2019-05-02T03:01:32.747Z,16.65
2019-05-02T03:02:09.879Z,20.92
2019-05-02T03:02:47.791Z,17.82
2019-05-02T03:03:20.962Z,24.70
2019-05-02T03:03:51.912Z,20.85
2019-05-02T03:04:25.407Z,21.20
2019-05-02T03:04:58.929Z,18.10
2019-05-02T03:05:32.415Z,21.65
2019-05-02T03:06:08.027Z,19.07
2019-05-02T03:06:44.831Z,19.55
2019-05-02T03:07:24.627Z,20.48
2019-05-02T03:07:51.644Z,19.50
2019-05-02T03:08:25.356Z,19.17
2019-05-02T03:08:59.078Z,17.70
2019-05-02T03:09:32.590Z,19.15
2019-05-02T03:10:08.373Z,16.97
2019-05-02T03:10:45.069Z,16.45
2019-05-02T03:11:23.538Z,20.43
2019-05-02T03:12:12.502Z,19.25
2019-05-02T03:13:03.993Z,17.45
2019-05-02T03:14:05.693Z,22.60
2019-05-02T03:14:41.064Z,17.37
2019-05-02T03:15:14.342Z,22.32
2019-05-02T03:15:50.966Z,18.15
2019-05-02T03:16:26.330Z,18.10
2019-05-02T03:16:59.839Z,18.95
2019-05-02T03:17:33.472Z,19.20
2019-05-02T03:18:06.992Z,16.55
2019-05-02T03:18:43.234Z,23.55
2019-05-02T03:19:21.441Z,19.48
2019-05-02T03:19:54.294Z,20.17
2019-05-02T03:20:26.174Z,17.00
2019-05-02T03:20:59.679Z,16.27
2019-05-02T03:21:33.213Z,17.57
2019-05-02T03:22:06.915Z,19.40
2019-05-02T03:22:43.373Z,21.07
2019-05-02T03:23:22.312Z,19.20
2019-05-02T03:24:01.680Z,16.52
2019-05-02T03:24:26.915Z,17.57
2019-05-02T03:25:00.581Z,14.98
2019-05-02T03:25:49.647Z,21.37
2019-05-02T03:26:15.187Z,19.60
2019-05-02T03:26:48.761Z,16.55
2019-05-02T03:27:19.723Z,20.32
2019-05-02T03:27:53.443Z,17.25
2019-05-02T03:28:26.982Z,19.30
2019-05-02T03:29:00.928Z,18.05
2019-05-02T03:29:41.102Z,19.92
2019-05-02T03:30:29.719Z,18.77
2019-05-02T03:30:45.441Z,18.00
2019-05-02T03:31:25.831Z,18.40
2019-05-02T03:32:12.272Z,15.08
2019-05-02T03:32:34.676Z,19.15
2019-05-02T03:33:10.979Z,17.02
2019-05-02T03:33:55.136Z,19.77
2019-05-02T03:34:16.750Z,18.25
2019-05-02T03:34:53.419Z,20.62
2019-05-02T03:35:40.875Z,20.35
2019-05-02T03:36:01.087Z,20.35
2019-05-02T03:36:36.895Z,20.08
2019-05-02T03:37:13.519Z,18.12
2019-05-02T03:37:51.506Z,18.45
2019-05-02T03:38:31.529Z,19.23
2019-05-02T03:38:55.912Z,21.42
2019-05-02T03:39:29.454Z,18.50
2019-05-02T03:40:03.054Z,18.20
2019-05-02T03:40:38.881Z,16.30
2019-05-02T03:41:13.320Z,16.00
2019-05-02T03:41:55.816Z,21.05
2019-05-02T03:42:24.786Z,19.75
2019-05-02T03:42:58.762Z,19.60
2019-05-02T03:43:32.246Z,21.42
2019-05-02T03:44:11.110Z,17.30
2019-05-02T03:44:41.180Z,21.77
2019-05-02T03:45:14.782Z,20.10
2019-05-02T03:45:48.460Z,25.32
2019-05-02T03:46:22.776Z,22.70
2019-05-02T03:47:02.375Z,20.65
2019-05-02T03:47:36.821Z,18.85
2019-05-02T03:48:07.121Z,21.45
2019-05-02T03:48:40.616Z,17.77
2019-05-02T03:49:14.180Z,20.23
2019-05-02T03:49:51.759Z,19.95
2019-05-02T03:50:31.124Z,19.32
2019-05-02T03:50:58.323Z,21.37
2019-05-02T03:51:31.847Z,20.15
2019-05-02T03:52:05.826Z,19.17
2019-05-02T03:52:43.939Z,19.82
2019-05-02T03:53:17.690Z,18.05
2019-05-02T03:53:50.244Z,18.75
2019-05-02T03:54:23.759Z,21.40
2019-05-02T03:54:57.550Z,18.10
2019-05-02T03:55:33.873Z,19.10
2019-05-02T03:56:11.567Z,21.07
2019-05-02T03:56:44.588Z,24.60
2019-05-02T03:57:17.261Z,20.20
2019-05-02T03:57:50.794Z,19.25
2019-05-02T03:58:24.642Z,18.95
2019-05-02T03:58:58.409Z,16.97
2019-05-02T03:59:38.486Z,20.25
2019-05-02T04:00:13.681Z,19.87
2019-05-02T04:00:43.606Z,19.92
2019-05-02T04:01:17.719Z,17.25
2019-05-02T04:01:51.425Z,21.85
2019-05-02T04:02:26.471Z,20.25
2019-05-02T04:03:02.131Z,21.55
2019-05-02T04:03:40.976Z,21.05
2019-05-02T04:04:14.088Z,19.90
2019-05-02T04:04:46.595Z,20.20
2019-05-02T04:05:20.134Z,22.75
2019-05-02T04:05:53.656Z,16.82
2019-05-02T04:06:27.316Z,16.10
2019-05-02T04:07:01.582Z,20.20
2019-05-02T04:07:40.569Z,20.12
2019-05-02T04:08:19.412Z,17.85
2019-05-02T04:08:47.365Z,17.10
2019-05-02T04:09:39.152Z,21.12
2019-05-02T04:10:13.483Z,18.10
2019-05-02T04:11:06.978Z,20.02
2019-05-02T04:11:47.405Z,17.80
2019-05-02T04:12:21.963Z,19.70
2019-05-02T04:12:58.357Z,17.65
2019-05-02T04:13:36.275Z,19.00
2019-05-02T04:14:15.254Z,17.85
2019-05-02T04:14:42.838Z,21.10
2019-05-02T04:15:16.344Z,17.82
2019-05-02T04:15:49.908Z,15.15
2019-05-02T04:16:24.319Z,21.70
2019-05-02T04:17:05.432Z,18.75
2019-05-02T04:17:39.997Z,18.32
2019-05-02T04:18:17.865Z,19.05
2019-05-02T04:18:55.797Z,20.65
2019-05-02T04:19:28.852Z,18.98
2019-05-02T04:20:09.386Z,15.38
2019-05-02T04:20:37.503Z,18.42
2019-05-02T04:21:11.382Z,14.98
2019-05-02T04:21:44.891Z,21.90
2019-05-02T04:22:18.421Z,15.68
2019-05-02T04:22:52.079Z,17.73
2019-05-02T04:23:27.674Z,16.60
2019-05-02T04:24:12.911Z,17.00
2019-05-02T04:24:38.575Z,17.17
2019-05-02T04:25:12.055Z,15.68
2019-05-02T04:25:45.946Z,22.42
2019-05-02T04:26:19.443Z,17.85
2019-05-02T04:26:56.154Z,16.87
2019-05-02T04:27:33.935Z,16.48
2019-05-02T04:28:05.809Z,14.83
2019-05-02T04:28:45.544Z,17.40
2019-05-02T04:29:16.217Z,15.00
2019-05-02T04:29:49.745Z,19.25
2019-05-02T04:30:23.230Z,18.10
2019-05-02T04:30:56.726Z,16.07
2019-05-02T04:31:31.995Z,14.80
2019-05-02T04:32:11.813Z,15.25
2019-05-02T04:32:43.163Z,14.50
2019-05-02T04:33:16.173Z,16.57
2019-05-02T04:33:49.720Z,15.75
2019-05-02T04:34:23.208Z,15.18
2019-05-02T04:34:58.036Z,16.23
2019-05-02T04:35:34.872Z,16.23
2019-05-02T04:36:13.432Z,13.43
2019-05-02T04:36:46.264Z,15.48
2019-05-02T04:37:18.040Z,17.73
2019-05-02T04:37:51.551Z,15.58
2019-05-02T04:38:39.251Z,15.98
2019-05-02T04:39:05.894Z,16.15
2019-05-02T04:39:38.853Z,14.33
2019-05-02T04:40:12.310Z,15.48
2019-05-02T04:40:47.245Z,12.43
2019-05-02T04:41:28.852Z,15.08
2019-05-02T04:41:58.736Z,15.83
2019-05-02T04:42:31.737Z,15.65
2019-05-02T04:43:10.268Z,15.23
2019-05-02T04:43:51.481Z,14.23
2019-05-02T04:44:18.791Z,17.32
2019-05-02T04:45:11.851Z,17.67
2019-05-02T04:45:35.980Z,17.57
2019-05-02T04:46:01.493Z,15.23
2019-05-02T04:46:35.003Z,19.60
2019-05-02T04:47:16.677Z,18.67
2019-05-02T04:47:57.479Z,18.48
2019-05-02T04:48:18.991Z,17.25
2019-05-02T04:48:53.066Z,15.08
2019-05-02T04:49:29.673Z,19.52
2019-05-02T04:50:08.002Z,17.52
2019-05-02T04:50:37.911Z,17.30
2019-05-02T04:51:16.357Z,16.23
2019-05-02T04:51:50.713Z,15.93
2019-05-02T04:52:22.450Z,16.85
2019-05-02T04:52:56.022Z,18.70
2019-05-02T04:53:36.971Z,16.27
2019-05-02T04:54:04.752Z,17.40
2019-05-02T04:54:39.060Z,16.27
2019-05-02T04:55:21.385Z,17.52
2019-05-02T04:55:52.487Z,18.35
2019-05-02T04:56:23.812Z,16.32
2019-05-02T04:56:59.058Z,26.85
2019-05-02T04:57:36.757Z,17.07
2019-05-02T04:58:08.406Z,13.53
2019-05-02T04:58:42.235Z,19.07
2019-05-02T04:59:19.817Z,14.45
2019-05-02T05:00:05.071Z,19.57
2019-05-02T05:00:28.628Z,15.05
2019-05-02T05:01:03.038Z,16.82
2019-05-02T05:01:43.265Z,17.62
2019-05-02T05:02:11.814Z,20.40
2019-05-02T05:02:48.221Z,17.37
2019-05-02T05:03:21.209Z,16.80
2019-05-02T05:03:58.395Z,17.15
2019-05-02T05:04:33.438Z,18.55
2019-05-02T05:05:08.060Z,15.90
2019-05-02T05:05:40.703Z,19.23
2019-05-02T05:06:14.235Z,25.37
2019-05-02T05:06:55.960Z,16.00
2019-05-02T05:07:23.029Z,19.77
2019-05-02T05:07:58.635Z,17.70
2019-05-02T05:08:32.139Z,18.65
2019-05-02T05:09:12.659Z,19.02
2019-05-02T05:09:47.917Z,21.25
2019-05-02T05:10:18.500Z,15.80
2019-05-02T05:10:51.807Z,18.92
2019-05-02T05:11:28.405Z,18.75
2019-05-02T05:12:02.756Z,18.17
2019-05-02T05:12:41.559Z,16.85
2019-05-02T05:13:19.851Z,18.60
2019-05-02T05:13:48.051Z,17.57
2019-05-02T05:14:22.211Z,15.55
2019-05-02T05:15:00.502Z,16.37
2019-05-02T05:15:41.187Z,16.15
2019-05-02T05:16:15.332Z,17.17
2019-05-02T05:16:45.523Z,17.42
2019-05-02T05:17:20.111Z,17.20
2019-05-02T05:17:53.902Z,16.67
2019-05-02T05:18:27.428Z,17.85
2019-05-02T05:19:00.926Z,17.45
2019-05-02T05:19:34.475Z,17.62
2019-05-02T05:20:14.078Z,19.87
2019-05-02T05:20:45.944Z,19.55
2019-05-02T05:21:18.502Z,16.02
2019-05-02T05:21:58.763Z,15.83
2019-05-02T05:22:28.373Z,16.15
2019-05-02T05:23:02.021Z,19.95
2019-05-02T05:23:59.509Z,18.12
2019-05-02T05:24:42.121Z,19.05
2019-05-02T05:25:21.331Z,18.23
2019-05-02T05:26:03.248Z,14.47
2019-05-02T05:26:33.812Z,16.73
2019-05-02T05:27:13.280Z,14.70
2019-05-02T05:27:44.116Z,16.67
2019-05-02T05:28:19.766Z,17.62
2019-05-02T05:28:52.862Z,15.50
2019-05-02T05:29:26.976Z,16.12
2019-05-02T05:30:09.167Z,13.90
2019-05-02T05:30:44.529Z,16.30
2019-05-02T05:31:18.401Z,14.20
2019-05-02T05:31:48.238Z,14.65
2019-05-02T05:32:21.951Z,16.75
2019-05-02T05:32:55.510Z,15.32
2019-05-02T05:33:29.241Z,17.02
2019-05-02T05:34:02.778Z,15.10
2019-05-02T05:34:37.963Z,16.15
2019-05-02T05:35:13.111Z,15.10
2019-05-02T05:35:48.881Z,15.93
2019-05-02T05:36:29.277Z,17.95
2019-05-02T05:36:58.279Z,18.07
2019-05-02T05:37:32.374Z,15.90
2019-05-02T05:38:07.731Z,13.72
2019-05-02T05:38:41.486Z,17.98
2019-05-02T05:39:17.436Z,17.55
2019-05-02T05:39:52.541Z,15.72
2019-05-02T05:40:28.170Z,16.15
2019-05-02T05:41:03.051Z,14.20
2019-05-02T05:41:37.863Z,16.80
2019-05-02T05:42:11.521Z,17.20
2019-05-02T05:42:45.168Z,19.35
2019-05-02T05:43:20.595Z,15.13
2019-05-02T05:43:53.974Z,15.75
2019-05-02T05:44:31.287Z,14.43
2019-05-02T05:45:03.786Z,13.70
2019-05-02T05:45:51.164Z,15.55
2019-05-02T05:46:13.355Z,14.83
2019-05-02T05:46:49.446Z,15.53
2019-05-02T05:47:22.210Z,13.43
2019-05-02T05:47:57.526Z,13.62
2019-05-02T05:48:32.048Z,13.22
2019-05-02T05:49:10.467Z,14.15
2019-05-02T05:49:41.621Z,13.25
2019-05-02T05:50:37.691Z,16.40
2019-05-02T05:51:11.800Z,16.80
2019-05-02T05:51:44.905Z,18.50
2019-05-02T05:52:18.444Z,23.87
2019-05-02T05:52:52.124Z,15.83
2019-05-02T05:53:28.061Z,12.10
2019-05-02T05:54:03.101Z,16.10
2019-05-02T05:54:40.425Z,14.98
2019-05-02T05:55:12.886Z,14.68
2019-05-02T05:55:47.505Z,16.93
2019-05-02T05:56:20.994Z,15.08
2019-05-02T05:56:54.494Z,13.45
2019-05-02T05:57:28.072Z,13.70
2019-05-02T05:58:12.389Z,14.55
2019-05-02T05:58:48.117Z,13.45
2019-05-02T05:59:17.385Z,14.73
2019-05-02T05:59:50.661Z,12.37
2019-05-02T06:00:24.251Z,13.62
2019-05-02T06:00:58.435Z,12.68
2019-05-02T06:01:34.845Z,15.85
2019-05-02T06:02:13.248Z,16.20
2019-05-02T06:03:10.913Z,14.63
2019-05-02T06:03:41.852Z,13.25
2019-05-02T06:04:13.988Z,13.10
2019-05-02T06:04:50.280Z,12.85
2019-05-02T06:05:23.317Z,14.33
2019-05-02T06:05:58.020Z,19.40
2019-05-02T06:06:31.591Z,10.95
2019-05-02T06:07:07.077Z,11.50
2019-05-02T06:07:43.989Z,13.65
2019-05-02T06:08:18.517Z,14.87
2019-05-02T06:08:54.033Z,12.53
2019-05-02T06:09:30.583Z,14.98
2019-05-02T06:10:02.336Z,12.73
2019-05-02T06:10:38.959Z,11.30
2019-05-02T06:11:14.873Z,13.10
2019-05-02T06:11:50.721Z,12.88
2019-05-02T06:12:26.204Z,16.42
2019-05-02T06:12:57.673Z,11.20
2019-05-02T06:13:31.248Z,12.88
2019-05-02T06:14:04.881Z,12.95
2019-05-02T06:14:38.390Z,13.55
2019-05-02T06:15:12.181Z,14.78
2019-05-02T06:15:45.963Z,13.30
2019-05-02T06:16:19.747Z,11.25
2019-05-02T06:16:53.784Z,11.25
2019-05-02T06:17:28.525Z,13.93
2019-05-02T06:18:04.829Z,13.53
2019-05-02T06:18:41.731Z,13.88
2019-05-02T06:19:17.453Z,13.85
2019-05-02T06:19:53.721Z,13.88
2019-05-02T06:20:25.661Z,10.82
2019-05-02T06:21:03.349Z,11.45
2019-05-02T06:21:34.341Z,18.70
2019-05-02T06:22:08.714Z,10.88
2019-05-02T06:22:42.213Z,12.33
2019-05-02T06:23:15.736Z,15.85
2019-05-02T06:23:49.901Z,14.38
2019-05-02T06:24:24.054Z,17.57
2019-05-02T06:24:57.539Z,14.73
2019-05-02T06:25:34.140Z,14.30
2019-05-02T06:26:07.823Z,13.05
2019-05-02T06:26:44.791Z,15.72
2019-05-02T06:27:20.819Z,14.10
2019-05-02T06:27:52.542Z,13.15
2019-05-02T06:28:26.017Z,15.90
2019-05-02T06:28:59.642Z,12.00
2019-05-02T06:29:33.523Z,11.75
2019-05-02T06:30:07.562Z,13.05
2019-05-02T06:30:41.052Z,14.80
2019-05-02T06:31:17.083Z,16.32
2019-05-02T06:31:49.891Z,13.60
2019-05-02T06:32:23.570Z,10.98
2019-05-02T06:32:57.069Z,13.25
2019-05-02T06:33:32.326Z,15.45
2019-05-02T06:34:07.088Z,16.10
2019-05-02T06:34:46.557Z,14.18
2019-05-02T06:35:17.175Z,12.03
2019-05-02T06:35:58.337Z,12.23
2019-05-02T06:36:27.463Z,11.95
2019-05-02T06:37:01.151Z,16.85
2019-05-02T06:37:34.855Z,13.05
2019-05-02T06:38:08.365Z,12.95
2019-05-02T06:38:41.878Z,13.45
2019-05-02T06:39:15.489Z,13.40
2019-05-02T06:39:49.035Z,11.03
2019-05-02T06:40:22.625Z,13.98
2019-05-02T06:40:56.135Z,12.37
2019-05-02T06:41:29.706Z,14.63
2019-05-02T06:42:03.257Z,13.72
2019-05-02T06:42:38.029Z,14.38
2019-05-02T06:43:11.838Z,14.70
2019-05-02T06:43:46.564Z,13.95
2019-05-02T06:44:23.848Z,15.15
2019-05-02T06:44:59.751Z,12.37
2019-05-02T06:45:32.288Z,14.70
2019-05-02T06:46:16.130Z,12.65
2019-05-02T06:46:41.786Z,13.05
2019-05-02T06:47:15.359Z,12.78
2019-05-02T06:47:48.930Z,12.80
2019-05-02T06:48:22.500Z,13.18
2019-05-02T06:48:56.098Z,12.93
2019-05-02T06:49:29.691Z,11.55
2019-05-02T06:50:03.446Z,9.80
2019-05-02T06:50:38.822Z,22.22
2019-05-02T06:51:19.557Z,12.73
2019-05-02T06:51:51.089Z,14.65
2019-05-02T06:52:27.136Z,16.45
2019-05-02T06:52:58.015Z,10.85
2019-05-02T06:53:31.513Z,12.70
2019-05-02T06:54:05.009Z,13.43
2019-05-02T06:54:38.737Z,9.88
2019-05-02T06:55:12.485Z,10.05
2019-05-02T06:55:46.011Z,16.07
2019-05-02T06:56:19.519Z,17.12
2019-05-02T06:56:53.018Z,12.85
2019-05-02T06:57:26.776Z,14.23
2019-05-02T06:58:02.813Z,11.53
2019-05-02T06:58:37.123Z,13.40
2019-05-02T06:59:13.142Z,12.30
2019-05-02T06:59:49.899Z,10.68
2019-05-02T07:00:34.739Z,16.30
2019-05-02T07:00:59.775Z,11.75
2019-05-02T07:01:33.358Z,14.70
2019-05-02T07:02:07.338Z,15.58
2019-05-02T07:02:40.850Z,14.10
2019-05-02T07:03:14.363Z,16.55
2019-05-02T07:03:47.940Z,13.03
2019-05-02T07:04:22.968Z,13.08
2019-05-02T07:04:56.906Z,13.25
2019-05-02T07:05:30.535Z,14.75
2019-05-02T07:06:04.262Z,12.58
2019-05-02T07:06:55.965Z,14.35
2019-05-02T07:07:14.607Z,13.55
2019-05-02T07:07:48.187Z,14.68
2019-05-02T07:08:21.697Z,15.18
2019-05-02T07:08:55.277Z,14.10
2019-05-02T07:09:39.880Z,14.05
2019-05-02T07:10:07.258Z,12.35
2019-05-02T07:10:44.657Z,12.35
2019-05-02T07:11:15.315Z,13.72
2019-05-02T07:11:57.053Z,12.35
2019-05-02T07:12:24.038Z,14.03
2019-05-02T07:13:09.998Z,12.60
2019-05-02T07:13:36.299Z,14.07
2019-05-02T07:14:13.453Z,14.45
2019-05-02T07:14:45.803Z,18.35
2019-05-02T07:15:49.127Z,12.28
2019-05-02T07:16:37.484Z,13.98
2019-05-02T07:17:11.769Z,14.80
2019-05-02T07:17:47.051Z,12.98
2019-05-02T07:18:20.926Z,18.57
2019-05-02T07:19:02.266Z,14.00
2019-05-02T07:19:38.958Z,16.35
2019-05-02T07:20:13.258Z,17.48
2019-05-02T07:20:46.817Z,14.43
2019-05-02T07:21:23.487Z,19.98
2019-05-02T07:21:59.016Z,31.73
2019-05-02T07:22:33.044Z,18.57
2019-05-02T07:23:10.564Z,15.85
2019-05-02T07:23:41.511Z,15.53
2019-05-02T07:24:15.047Z,21.93
2019-05-02T07:24:48.669Z,13.65
2019-05-02T07:25:23.178Z,16.37
2019-05-02T07:25:59.953Z,16.80
2019-05-02T07:26:32.152Z,15.50
2019-05-02T07:27:05.658Z,16.25
2019-05-02T07:27:39.470Z,19.95
2019-05-02T07:28:13.152Z,20.20
2019-05-02T07:28:47.521Z,16.48
2019-05-02T07:29:21.924Z,18.62
2019-05-02T07:29:57.662Z,21.33
2019-05-02T07:30:35.065Z,20.08
2019-05-02T07:31:11.953Z,21.10
2019-05-02T07:31:43.144Z,15.93
2019-05-02T07:32:19.309Z,19.05
2019-05-02T07:32:56.269Z,18.73
2019-05-02T07:33:32.196Z,19.23
2019-05-02T07:34:03.623Z,15.10
2019-05-02T07:34:37.780Z,19.87
2019-05-02T07:35:11.594Z,19.32
2019-05-02T07:35:45.121Z,19.23
2019-05-02T07:36:19.031Z,16.50
2019-05-02T07:36:52.583Z,18.45
2019-05-02T07:37:26.094Z,17.57
2019-05-02T07:37:59.702Z,19.80
2019-05-02T07:38:33.217Z,18.92
2019-05-02T07:39:07.462Z,19.55
2019-05-02T07:39:42.194Z,19.10
2019-05-02T07:40:16.993Z,23.52
2019-05-02T07:40:52.982Z,20.50
2019-05-02T07:41:28.943Z,18.75